Time;durP1;ratioP1;P1;durP2;ratioP2;P2;SDS_P1;SDS_P2;PMS_P1;PMS_P2;Temp;Humidity;BMP_temperature;BMP_pressure;BME280_temperature;BME280_humidity;BME280_pressure;Samples;Min_cycle;Max_cycle;Signal;HPM_P1;HPM_P2
2023/06/15 00:01:22;;;;;;;;;;;18.70;80.40;;;;;;5127931;27;19919;-75
2023/06/15 00:03:48;;;;;;;;;;;18.70;80.50;;;;;;5130674;27;19926;-75
2023/06/15 00:06:13;;;;;;;;;;;18.70;80.70;;;;;;5128737;27;19919;-75
2023/06/15 00:08:39;;;;;;;;;;;18.70;80.80;;;;;;5118665;27;19942;-75
2023/06/15 00:11:04;;;;;;;;;;;18.70;81.30;;;;;;5128912;27;19924;-76
2023/06/15 00:13:30;;;;;;;;;;;18.60;81.60;;;;;;5110984;27;19950;-76
2023/06/15 00:15:56;;;;;;;;;;;18.60;81.70;;;;;;5127397;27;20330;-75
2023/06/15 00:18:22;;;;;;;;;;;18.60;82.10;;;;;;5129114;27;20055;-75
2023/06/15 00:20:47;;;;;;;;;;;18.50;82.20;;;;;;5128210;27;20259;-76
2023/06/15 00:23:13;;;;;;;;;;;18.50;82.80;;;;;;5125897;27;19923;-76
2023/06/15 00:25:38;;;;;;;;;;;18.50;83.20;;;;;;5109860;27;20045;-75
2023/06/15 00:28:04;;;;;;;;;;;18.40;83.70;;;;;;5105202;28;19927;-75
2023/06/15 00:30:30;;;;;;;;;;;18.40;83.90;;;;;;5114072;27;19923;-75
2023/06/15 00:32:55;;;;;;;;;;;18.40;84.20;;;;;;5126149;27;19927;-75
2023/06/15 00:35:21;;;;;;;;;;;18.40;84.30;;;;;;5116430;27;19931;-75
2023/06/15 00:37:47;;;;;;;;;;;18.40;84.60;;;;;;5129303;27;20275;-75
2023/06/15 00:40:12;;;;;;;;;;;18.30;85.00;;;;;;5108049;27;19927;-75
2023/06/15 00:42:38;;;;;;;;;;;18.30;85.50;;;;;;5117016;27;19920;-75
2023/06/15 00:45:04;;;;;;;;;;;18.30;85.90;;;;;;5114945;27;20386;-75
2023/06/15 00:47:30;;;;;;;;;;;18.30;86.20;;;;;;5119183;27;20306;-75
2023/06/15 00:49:57;;;;;;;;;;;18.30;86.20;;;;;;5122145;27;19931;-75
2023/06/15 00:52:23;;;;;;;;;;;18.30;86.60;;;;;;5126442;27;19930;-75
2023/06/15 00:54:49;;;;;;;;;;;18.20;86.60;;;;;;5129826;27;19919;-75
2023/06/15 00:57:15;;;;;;;;;;;18.20;87.10;;;;;;5117167;27;20302;-75
2023/06/15 00:59:41;;;;;;;;;;;18.20;87.20;;;;;;5121732;27;19942;-75
2023/06/15 01:02:12;;;;;;;;;;;18.10;87.60;;;;;;5122101;27;19919;-75
2023/06/15 01:04:38;;;;;;;;;;;18.10;88.00;;;;;;5109756;27;19964;-75
2023/06/15 01:07:04;;;;;;;;;;;18.00;88.50;;;;;;5126673;27;19923;-75
2023/06/15 01:09:32;;;;;;;;;;;18.00;88.90;;;;;;5126598;27;20354;-75
2023/06/15 01:11:59;;;;;;;;;;;18.00;89.20;;;;;;5127986;27;19924;-75
2023/06/15 01:14:26;;;;;;;;;;;17.90;89.90;;;;;;5126346;27;19926;-75
2023/06/15 01:16:57;;;;;;;;;;;17.90;90.00;;;;;;5127589;27;20383;-75
2023/06/15 01:19:32;;;;;;;;;;;17.90;90.20;;;;;;5125826;27;20009;-75
2023/06/15 01:22:07;;;;;;;;;;;17.90;90.50;;;;;;5123567;27;19976;-75
2023/06/15 01:24:36;;;;;;;;;;;17.90;90.70;;;;;;5126274;27;19924;-75
2023/06/15 01:27:04;;;;;;;;;;;17.80;90.80;;;;;;5122608;27;19923;-75
2023/06/15 01:29:31;;;;;;;;;;;17.80;91.10;;;;;;5110029;27;19919;-75
2023/06/15 01:31:57;;;;;;;;;;;17.80;91.40;;;;;;5124016;27;19924;-75
2023/06/15 01:34:22;;;;;;;;;;;17.70;91.60;;;;;;5118982;27;20572;-75
2023/06/15 01:36:48;;;;;;;;;;;17.70;91.80;;;;;;5120870;27;19930;-75
2023/06/15 01:39:13;;;;;;;;;;;17.70;91.90;;;;;;5119763;27;19919;-75
2023/06/15 01:41:39;;;;;;;;;;;17.70;92.10;;;;;;5126404;27;19920;-75
2023/06/15 01:44:05;;;;;;;;;;;17.70;92.30;;;;;;5127899;27;19927;-75
2023/06/15 01:46:31;;;;;;;;;;;17.70;92.40;;;;;;5125465;27;19923;-75
2023/06/15 01:48:57;;;;;;;;;;;17.60;92.50;;;;;;5127620;27;20267;-75
2023/06/15 01:51:23;;;;;;;;;;;17.60;92.50;;;;;;5106419;27;19972;-75
2023/06/15 01:53:49;;;;;;;;;;;17.60;92.60;;;;;;5127741;27;20383;-75
2023/06/15 01:56:16;;;;;;;;;;;17.60;92.80;;;;;;5124424;27;19920;-75
2023/06/15 01:58:42;;;;;;;;;;;17.50;92.90;;;;;;5127916;27;19919;-75
2023/06/15 02:01:08;;;;;;;;;;;17.50;93.00;;;;;;5123516;27;19979;-75
2023/06/15 02:03:33;;;;;;;;;;;17.50;93.10;;;;;;5117516;27;20295;-75
2023/06/15 02:05:58;;;;;;;;;;;17.50;93.30;;;;;;5122331;27;19926;-75
2023/06/15 02:08:24;;;;;;;;;;;17.50;93.40;;;;;;5126836;27;19927;-75
2023/06/15 02:10:50;;;;;;;;;;;17.50;93.50;;;;;;5113899;27;20408;-75
2023/06/15 02:13:15;;;;;;;;;;;17.40;93.50;;;;;;5126456;27;19926;-75
2023/06/15 02:15:40;;;;;;;;;;;17.40;93.60;;;;;;5124981;27;20309;-75
2023/06/15 02:18:11;;;;;;;;;;;17.30;93.80;;;;;;5126183;27;19926;-75
2023/06/15 02:20:41;;;;;;;;;;;17.30;94.00;;;;;;5121740;27;19920;-75
2023/06/15 02:23:06;;;;;;;;;;;17.30;94.10;;;;;;5126709;27;19927;-75
2023/06/15 02:25:32;;;;;;;;;;;17.30;94.20;;;;;;5119958;27;19931;-75
2023/06/15 02:27:57;;;;;;;;;;;17.30;94.40;;;;;;5124905;27;19919;-75
2023/06/15 02:30:26;;;;;;;;;;;17.30;94.40;;;;;;5119895;27;19919;-75
2023/06/15 02:32:53;;;;;;;;;;;17.30;94.50;;;;;;5125171;27;19919;-75
2023/06/15 02:35:19;;;;;;;;;;;17.30;94.20;;;;;;5112342;27;19920;-75
2023/06/15 02:37:45;;;;;;;;;;;17.30;94.30;;;;;;5126981;27;20446;-75
2023/06/15 02:40:11;;;;;;;;;;;17.20;94.50;;;;;;5114658;27;20002;-75
2023/06/15 02:42:37;;;;;;;;;;;17.30;94.30;;;;;;5128465;27;19966;-75
2023/06/15 02:45:03;;;;;;;;;;;17.20;94.30;;;;;;5126658;27;19966;-75
2023/06/15 02:47:29;;;;;;;;;;;17.20;94.40;;;;;;5132153;27;19924;-75
2023/06/15 02:49:58;;;;;;;;;;;17.20;94.50;;;;;;5130486;27;19919;-75
2023/06/15 02:52:24;;;;;;;;;;;17.20;94.70;;;;;;5133064;27;19919;-75
2023/06/15 02:54:50;;;;;;;;;;;17.20;94.90;;;;;;5127316;27;20374;-75
2023/06/15 02:57:16;;;;;;;;;;;17.10;95.10;;;;;;5132255;27;19930;-75
2023/06/15 02:59:41;;;;;;;;;;;17.10;95.30;;;;;;5130722;27;19923;-75
2023/06/15 03:02:08;;;;;;;;;;;17.00;95.40;;;;;;5120970;27;19959;-75
2023/06/15 03:04:37;;;;;;;;;;;17.00;95.60;;;;;;5128948;27;20378;-76
2023/06/15 03:07:03;;;;;;;;;;;17.00;95.80;;;;;;5131600;27;20006;-75
2023/06/15 03:09:29;;;;;;;;;;;17.00;96.10;;;;;;5130390;27;20305;-75
2023/06/15 03:11:54;;;;;;;;;;;17.00;96.00;;;;;;5131113;27;19926;-75
2023/06/15 03:14:20;;;;;;;;;;;16.90;96.00;;;;;;5129277;27;19929;-75
2023/06/15 03:16:48;;;;;;;;;;;16.90;96.00;;;;;;5131068;27;19919;-75
2023/06/15 03:19:17;;;;;;;;;;;16.90;96.20;;;;;;5129681;27;20327;-75
2023/06/15 03:21:43;;;;;;;;;;;16.90;96.10;;;;;;5129279;27;19920;-75
2023/06/15 03:24:09;;;;;;;;;;;16.80;96.30;;;;;;5129036;27;20370;-75
2023/06/15 03:26:37;;;;;;;;;;;16.80;96.60;;;;;;5118882;27;19951;-75
2023/06/15 03:29:03;;;;;;;;;;;16.70;96.90;;;;;;5129870;27;19942;-75
2023/06/15 03:31:33;;;;;;;;;;;16.70;97.20;;;;;;5130299;27;19923;-75
2023/06/15 03:34:01;;;;;;;;;;;16.70;97.40;;;;;;5123851;27;19920;-75
2023/06/15 03:36:30;;;;;;;;;;;16.60;97.40;;;;;;5123941;27;20042;-75
2023/06/15 03:38:56;;;;;;;;;;;16.60;97.60;;;;;;5131321;27;19984;-75
2023/06/15 03:41:22;;;;;;;;;;;16.60;97.50;;;;;;5127109;27;20681;-75
2023/06/15 03:43:47;;;;;;;;;;;16.60;97.30;;;;;;5117399;27;20034;-75
2023/06/15 03:46:13;;;;;;;;;;;16.60;97.10;;;;;;5122847;27;20504;-75
2023/06/15 03:48:38;;;;;;;;;;;16.60;97.00;;;;;;5128381;27;19919;-75
2023/06/15 03:51:04;;;;;;;;;;;16.70;97.10;;;;;;5127888;27;19919;-75
2023/06/15 03:53:29;;;;;;;;;;;16.80;97.30;;;;;;5121813;27;20680;-75
2023/06/15 03:55:55;;;;;;;;;;;16.80;97.30;;;;;;5111116;28;19930;-75
2023/06/15 03:58:21;;;;;;;;;;;16.80;97.50;;;;;;5127152;27;19926;-75
2023/06/15 04:00:46;;;;;;;;;;;16.80;97.50;;;;;;5126502;27;19919;-75
2023/06/15 04:03:13;;;;;;;;;;;16.80;97.30;;;;;;5104886;28;19923;-75
2023/06/15 04:05:38;;;;;;;;;;;16.80;97.20;;;;;;5121914;27;20392;-75
2023/06/15 04:08:05;;;;;;;;;;;16.90;97.10;;;;;;5121886;27;19919;-75
2023/06/15 04:10:30;;;;;;;;;;;16.90;97.20;;;;;;5122951;27;20291;-75
2023/06/15 04:12:56;;;;;;;;;;;16.90;97.10;;;;;;5127579;27;19928;-75
2023/06/15 04:15:21;;;;;;;;;;;17.00;97.30;;;;;;5126167;27;19972;-75
2023/06/15 04:17:48;;;;;;;;;;;17.00;97.50;;;;;;5116837;27;19923;-75
2023/06/15 04:20:14;;;;;;;;;;;17.10;97.60;;;;;;5125467;27;19971;-75
2023/06/15 04:22:40;;;;;;;;;;;17.10;97.60;;;;;;5117018;27;19966;-75
2023/06/15 04:25:06;;;;;;;;;;;17.20;97.70;;;;;;5127075;27;19923;-75
2023/06/15 04:27:34;;;;;;;;;;;17.20;97.60;;;;;;5126670;27;19919;-75
2023/06/15 04:30:03;;;;;;;;;;;17.20;97.70;;;;;;5126543;27;20298;-75
2023/06/15 04:32:30;;;;;;;;;;;17.30;97.60;;;;;;5127838;27;19973;-75
2023/06/15 04:34:56;;;;;;;;;;;17.30;97.70;;;;;;5113623;27;19928;-75
2023/06/15 04:37:23;;;;;;;;;;;17.40;97.60;;;;;;5129951;27;20395;-75
2023/06/15 04:39:49;;;;;;;;;;;17.40;97.50;;;;;;5115716;27;19924;-75
2023/06/15 04:42:17;;;;;;;;;;;17.50;97.40;;;;;;5129646;27;19920;-75
2023/06/15 04:44:43;;;;;;;;;;;17.50;96.90;;;;;;5107355;27;19928;-75
2023/06/15 04:47:09;;;;;;;;;;;17.60;96.40;;;;;;5121202;27;19919;-75
2023/06/15 04:49:34;;;;;;;;;;;17.60;95.90;;;;;;5121821;27;19928;-75
2023/06/15 04:52:00;;;;;;;;;;;17.60;95.80;;;;;;5126755;27;19919;-75
2023/06/15 04:54:25;;;;;;;;;;;17.60;95.70;;;;;;5124682;27;19928;-75
2023/06/15 04:56:51;;;;;;;;;;;17.70;95.70;;;;;;5125623;27;19927;-75
2023/06/15 04:59:16;;;;;;;;;;;17.70;95.40;;;;;;5123576;27;20028;-75
2023/06/15 05:01:42;;;;;;;;;;;17.70;95.40;;;;;;5126178;27;20306;-75
2023/06/15 05:04:08;;;;;;;;;;;17.80;95.10;;;;;;5106602;28;19930;-75
2023/06/15 05:06:33;;;;;;;;;;;17.80;94.70;;;;;;5124881;27;19985;-75
2023/06/15 05:08:59;;;;;;;;;;;17.90;94.50;;;;;;5122893;27;20021;-75
2023/06/15 05:11:24;;;;;;;;;;;17.90;94.00;;;;;;5125288;27;20961;-75
2023/06/15 05:13:50;;;;;;;;;;;18.00;93.50;;;;;;5122922;27;19919;-75
2023/06/15 05:16:16;;;;;;;;;;;18.00;93.50;;;;;;5124064;27;19919;-74
2023/06/15 05:18:42;;;;;;;;;;;18.10;93.20;;;;;;5122711;27;19919;-74
2023/06/15 05:21:07;;;;;;;;;;;18.20;93.00;;;;;;5123320;27;19926;-73
2023/06/15 05:23:33;;;;;;;;;;;18.20;92.90;;;;;;5112446;27;20010;-75
2023/06/15 05:25:59;;;;;;;;;;;18.30;92.80;;;;;;5114782;27;19954;-75
2023/06/15 05:28:24;;;;;;;;;;;18.30;92.70;;;;;;5112874;27;19966;-76
2023/06/15 05:30:50;;;;;;;;;;;18.40;92.60;;;;;;5116858;27;19926;-76
2023/06/15 05:33:16;;;;;;;;;;;18.50;92.30;;;;;;5119686;27;19934;-76
2023/06/15 05:35:41;;;;;;;;;;;18.60;92.10;;;;;;5105351;27;19919;-76
2023/06/15 05:38:07;;;;;;;;;;;18.60;92.00;;;;;;5125907;27;20399;-76
2023/06/15 05:40:32;;;;;;;;;;;18.60;91.90;;;;;;5128929;27;19923;-76
2023/06/15 05:42:58;;;;;;;;;;;18.70;91.80;;;;;;5126256;27;19919;-76
2023/06/15 05:45:24;;;;;;;;;;;18.70;91.50;;;;;;5127866;27;19975;-76
2023/06/15 05:47:50;;;;;;;;;;;18.80;91.50;;;;;;5124196;27;20424;-76
2023/06/15 05:50:15;;;;;;;;;;;18.80;91.20;;;;;;5127711;27;19966;-76
2023/06/15 05:52:41;;;;;;;;;;;18.90;91.20;;;;;;5124553;27;20400;-76
2023/06/15 05:55:07;;;;;;;;;;;18.90;91.10;;;;;;5126495;27;19972;-76
2023/06/15 05:57:33;;;;;;;;;;;19.00;90.90;;;;;;5124923;27;19920;-76
2023/06/15 05:59:58;;;;;;;;;;;19.00;90.60;;;;;;5124780;27;19920;-76
2023/06/15 06:02:24;;;;;;;;;;;19.00;90.50;;;;;;5106065;28;20750;-76
2023/06/15 06:04:50;;;;;;;;;;;19.00;90.40;;;;;;5122891;27;19919;-76
2023/06/15 06:07:16;;;;;;;;;;;19.10;90.50;;;;;;5123571;27;19972;-76
2023/06/15 06:09:41;;;;;;;;;;;19.10;90.00;;;;;;5123601;27;19964;-76
2023/06/15 06:12:07;;;;;;;;;;;19.20;90.10;;;;;;5122237;27;19920;-76
2023/06/15 06:14:32;;;;;;;;;;;19.20;90.10;;;;;;5123214;27;19925;-76
2023/06/15 06:16:58;;;;;;;;;;;19.20;90.00;;;;;;5123387;27;19919;-76
2023/06/15 06:19:24;;;;;;;;;;;19.30;89.50;;;;;;5119934;27;19923;-76
2023/06/15 06:21:49;;;;;;;;;;;19.30;88.40;;;;;;5121974;27;19919;-76
2023/06/15 06:24:15;;;;;;;;;;;19.40;87.90;;;;;;5121050;27;19919;-76
2023/06/15 06:26:41;;;;;;;;;;;19.40;88.30;;;;;;5121945;27;19919;-76
2023/06/15 06:29:06;;;;;;;;;;;19.40;88.70;;;;;;5121092;27;20430;-76
2023/06/15 06:31:32;;;;;;;;;;;19.50;88.60;;;;;;5121056;27;19920;-76
2023/06/15 06:33:57;;;;;;;;;;;19.50;89.50;;;;;;5099813;28;19920;-76
2023/06/15 06:36:23;;;;;;;;;;;19.60;88.90;;;;;;5121367;27;19966;-76
2023/06/15 06:38:49;;;;;;;;;;;19.60;88.70;;;;;;5126039;27;19942;-76
2023/06/15 06:41:14;;;;;;;;;;;19.60;88.40;;;;;;5125927;27;19930;-76
2023/06/15 06:43:40;;;;;;;;;;;19.70;87.70;;;;;;5125512;27;19919;-76
2023/06/15 06:46:05;;;;;;;;;;;19.70;88.40;;;;;;5123848;28;19927;-76
2023/06/15 06:48:31;;;;;;;;;;;19.80;87.70;;;;;;5125241;27;19919;-76
2023/06/15 06:50:57;;;;;;;;;;;19.90;86.50;;;;;;5123337;28;19930;-76
2023/06/15 06:53:22;;;;;;;;;;;19.90;86.90;;;;;;5124759;27;20306;-76
2023/06/15 06:55:48;;;;;;;;;;;20.00;85.80;;;;;;5122617;27;20329;-76
2023/06/15 06:58:14;;;;;;;;;;;20.10;84.10;;;;;;5123621;27;19919;-76
2023/06/15 07:00:39;;;;;;;;;;;20.10;83.50;;;;;;5123499;27;19964;-76
2023/06/15 07:03:05;;;;;;;;;;;20.20;82.70;;;;;;5124258;27;19975;-76
2023/06/15 07:05:31;;;;;;;;;;;20.20;81.40;;;;;;5121648;27;19919;-76
2023/06/15 07:07:56;;;;;;;;;;;20.30;80.70;;;;;;5122311;27;19958;-76
2023/06/15 07:10:22;;;;;;;;;;;20.30;80.70;;;;;;5121905;27;19925;-77
2023/06/15 07:12:47;;;;;;;;;;;20.40;80.70;;;;;;5123619;28;20005;-76
2023/06/15 07:15:13;;;;;;;;;;;20.50;81.70;;;;;;5123422;27;19919;-76
2023/06/15 07:17:39;;;;;;;;;;;20.50;81.30;;;;;;5096366;28;19919;-77
2023/06/15 07:20:05;;;;;;;;;;;20.60;82.20;;;;;;5123718;27;20370;-77
2023/06/15 07:22:30;;;;;;;;;;;20.60;82.00;;;;;;5113166;28;19919;-76
2023/06/15 07:24:56;;;;;;;;;;;20.60;82.30;;;;;;5121751;28;20285;-76
2023/06/15 07:27:21;;;;;;;;;;;20.70;79.50;;;;;;5122895;28;19965;-76
2023/06/15 07:29:47;;;;;;;;;;;20.70;79.50;;;;;;5112983;28;19976;-76
2023/06/15 07:32:13;;;;;;;;;;;20.80;80.10;;;;;;5126525;27;20278;-76
2023/06/15 07:34:39;;;;;;;;;;;20.80;79.40;;;;;;5116651;27;19941;-76
2023/06/15 07:37:05;;;;;;;;;;;20.90;80.00;;;;;;5130273;27;19919;-76
2023/06/15 07:39:30;;;;;;;;;;;20.90;79.80;;;;;;5118756;27;19930;-77
2023/06/15 07:41:56;;;;;;;;;;;21.00;79.90;;;;;;5126582;27;19926;-76
2023/06/15 07:44:21;;;;;;;;;;;21.00;79.80;;;;;;5128784;27;19965;-76
2023/06/15 07:46:47;;;;;;;;;;;21.10;80.20;;;;;;5121650;27;19972;-76
2023/06/15 07:49:12;;;;;;;;;;;21.20;79.30;;;;;;5123673;27;20344;-77
2023/06/15 07:51:38;;;;;;;;;;;21.30;78.40;;;;;;5121793;27;19969;-76
2023/06/15 07:54:03;;;;;;;;;;;21.30;77.30;;;;;;5122133;27;19972;-76
2023/06/15 07:56:29;;;;;;;;;;;21.40;76.80;;;;;;5125855;27;19927;-76
2023/06/15 07:58:55;;;;;;;;;;;21.40;76.10;;;;;;5127912;27;20693;-76
2023/06/15 08:01:20;;;;;;;;;;;21.40;75.40;;;;;;5123960;27;19919;-76
2023/06/15 08:03:46;;;;;;;;;;;21.50;76.10;;;;;;5127925;27;20018;-76
2023/06/15 08:06:11;;;;;;;;;;;21.60;74.80;;;;;;5114286;27;19973;-76
2023/06/15 08:08:37;;;;;;;;;;;21.70;75.10;;;;;;5128251;27;19919;-76
2023/06/15 08:11:05;;;;;;;;;;;21.80;73.80;;;;;;5123245;27;19923;-76
2023/06/15 08:13:30;;;;;;;;;;;21.80;72.30;;;;;;5125717;27;19919;-76
2023/06/15 08:15:56;;;;;;;;;;;21.90;72.20;;;;;;5114885;27;20522;-76
2023/06/15 08:18:22;;;;;;;;;;;21.90;71.40;;;;;;5127473;27;19920;-76
2023/06/15 08:20:47;;;;;;;;;;;22.00;70.70;;;;;;5120902;27;20420;-76
2023/06/15 08:23:13;;;;;;;;;;;22.00;71.60;;;;;;5128284;27;20409;-76
2023/06/15 08:25:39;;;;;;;;;;;22.10;71.20;;;;;;5123160;27;19927;-76
2023/06/15 08:28:05;;;;;;;;;;;22.20;71.70;;;;;;5127543;27;19920;-76
2023/06/15 08:30:30;;;;;;;;;;;22.30;68.50;;;;;;5123118;27;19920;-76
2023/06/15 08:32:56;;;;;;;;;;;22.30;69.50;;;;;;5127173;27;19923;-76
2023/06/15 08:35:21;;;;;;;;;;;22.30;69.90;;;;;;5113641;27;20275;-76
2023/06/15 08:37:47;;;;;;;;;;;22.40;70.40;;;;;;5129989;27;19974;-76
2023/06/15 08:40:12;;;;;;;;;;;22.40;70.30;;;;;;5126223;27;19919;-76
2023/06/15 08:42:38;;;;;;;;;;;22.50;70.10;;;;;;5129127;27;19930;-76
2023/06/15 08:45:05;;;;;;;;;;;22.60;69.90;;;;;;5124947;27;19923;-76
2023/06/15 08:47:32;;;;;;;;;;;22.70;70.40;;;;;;5129110;27;19919;-76
2023/06/15 08:49:59;;;;;;;;;;;22.80;69.70;;;;;;5124981;27;19926;-76
2023/06/15 08:52:26;;;;;;;;;;;22.90;70.00;;;;;;5128958;27;19923;-76
2023/06/15 08:54:52;;;;;;;;;;;23.00;69.50;;;;;;5124393;27;19931;-76
2023/06/15 08:57:17;;;;;;;;;;;23.10;70.00;;;;;;5128192;27;20005;-76
2023/06/15 08:59:43;;;;;;;;;;;23.10;69.20;;;;;;5106612;27;20009;-76
2023/06/15 09:02:13;;;;;;;;;;;23.20;69.90;;;;;;5128968;27;20410;-76
2023/06/15 09:04:38;;;;;;;;;;;23.30;69.40;;;;;;5114792;27;20306;-76
2023/06/15 09:07:05;;;;;;;;;;;23.30;69.40;;;;;;5128092;27;19923;-76
2023/06/15 09:09:30;;;;;;;;;;;23.30;69.40;;;;;;5124374;27;19988;-76
2023/06/15 09:11:56;;;;;;;;;;;23.40;69.40;;;;;;5127069;27;19923;-76
2023/06/15 09:14:22;;;;;;;;;;;23.60;69.30;;;;;;5124978;27;19961;-76
2023/06/15 09:16:48;;;;;;;;;;;23.70;68.80;;;;;;5128453;27;20014;-76
2023/06/15 09:19:16;;;;;;;;;;;23.80;68.70;;;;;;5126206;27;20441;-76
2023/06/15 09:21:50;;;;;;;;;;;23.80;68.10;;;;;;5127261;27;19927;-76
2023/06/15 09:24:16;;;;;;;;;;;23.90;65.80;;;;;;5124456;27;20300;-76
2023/06/15 09:26:43;;;;;;;;;;;24.00;65.00;;;;;;5125700;27;19926;-76
2023/06/15 09:29:11;;;;;;;;;;;24.10;65.50;;;;;;5124780;27;19979;-76
2023/06/15 09:31:37;;;;;;;;;;;24.20;65.30;;;;;;5125322;27;20484;-76
2023/06/15 09:34:03;;;;;;;;;;;24.50;65.60;;;;;;5120380;27;19920;-76
2023/06/15 09:36:51;;;;;;;;;;;24.80;64.40;;;;;;5121706;27;20289;-77
2023/06/15 09:39:22;;;;;;;;;;;25.10;63.60;;;;;;5110686;27;20834;-77
2023/06/15 09:41:51;;;;;;;;;;;25.50;61.40;;;;;;5123738;27;20381;-77
2023/06/15 09:44:20;;;;;;;7.43;1.55;;;25.80;61.70;;;;;;5126564;27;19923;-76
2023/06/15 09:46:49;;;;;;;6.97;1.70;;;26.10;62.80;;;;;;5118244;27;21151;-77
2023/06/15 09:49:43;;;;;;;7.20;1.77;;;26.30;62.60;;;;;;5100025;27;20049;-77
2023/06/15 09:52:12;;;;;;;5.65;1.67;;;26.50;62.10;;;;;;5102924;27;20464;-77
2023/06/15 09:54:38;;;;;;;;;;;26.80;62.50;;;;;;5112150;27;20501;-77
2023/06/15 09:57:04;;;;;;;;;;;26.90;61.00;;;;;;5125495;27;20378;-77
2023/06/15 09:59:30;;;;;;;3.80;1.70;;;27.10;60.00;;;;;;5116288;27;19924;-77
2023/06/15 10:01:57;;;;;;;5.55;1.80;;;27.20;59.30;;;;;;5124444;27;20923;-77
2023/06/15 10:04:31;;;;;;;6.15;1.98;;;27.30;60.80;;;;;;5118839;27;20400;-77
2023/06/15 10:07:04;;;;;;;4.40;1.77;;;27.50;59.70;;;;;;5116542;27;20042;-77
2023/06/15 10:09:40;;;;;;;;;;;27.70;59.10;;;;;;5114485;27;20058;-77
2023/06/15 10:12:08;;;;;;;;;;;27.80;58.20;;;;;;5123643;27;19926;-78
2023/06/15 10:14:37;;;;;;;4.65;1.75;;;27.90;55.80;;;;;;5121059;27;19941;-77
2023/06/15 10:17:06;;;;;;;4.38;1.63;;;28.00;55.40;;;;;;5120989;27;20905;-77
2023/06/15 10:19:38;;;;;;;3.97;1.60;;;28.00;56.30;;;;;;5121412;27;20410;-77
2023/06/15 10:22:08;;;;;;;4.97;1.60;;;28.20;55.80;;;;;;5119459;27;20899;-77
2023/06/15 10:24:35;;;;;;;5.07;1.90;;;28.40;56.10;;;;;;5122690;27;20394;-77
2023/06/15 10:27:01;;;;;;;6.95;1.73;;;28.50;56.70;;;;;;5118767;27;20449;-77
2023/06/15 10:29:49;;;;;;;3.60;1.70;;;28.60;55.80;;;;;;5122534;27;20762;-77
2023/06/15 10:32:18;;;;;;;4.18;1.60;;;28.70;57.80;;;;;;5113467;27;20476;-77
2023/06/15 10:34:54;;;;;;;6.68;1.73;;;28.80;56.70;;;;;;5113633;27;20408;-77
2023/06/15 10:37:30;;;;;;;5.78;1.92;;;29.00;58.70;;;;;;5115091;27;20407;-77
2023/06/15 10:40:05;;;;;;;5.25;2.03;;;29.10;58.30;;;;;;5122580;27;20428;-77
2023/06/15 10:42:47;;;;;;;5.37;1.80;;;29.10;58.90;;;;;;5126624;27;20394;-77
2023/06/15 10:45:21;;;;;;;;;;;29.20;59.30;;;;;;5122948;28;20024;-77
2023/06/15 10:47:47;;;;;;;;;;;29.30;59.50;;;;;;5125744;27;20366;-77
2023/06/15 10:50:16;;;;;;;5.70;1.73;;;29.40;58.70;;;;;;5124726;27;19925;-77
2023/06/15 10:52:42;;;;;;;6.60;2.10;;;29.30;59.60;;;;;;5112769;28;20388;-77
2023/06/15 10:55:09;;;;;;;4.35;1.70;;;29.30;59.30;;;;;;5122333;28;20417;-77
2023/06/15 10:57:36;;;;;;;5.10;2.00;;;29.40;59.50;;;;;;5121400;28;20438;-77
2023/06/15 11:00:04;;;;;;;6.03;1.90;;;29.40;58.70;;;;;;5122752;28;20406;-77
2023/06/15 11:02:31;;;;;;;4.07;1.63;;;29.60;57.90;;;;;;5122115;27;20398;-77
2023/06/15 11:05:09;;;;;;;4.25;1.65;;;29.60;56.60;;;;;;5123138;28;20422;-78
2023/06/15 11:07:35;;;;;;;;;;;29.80;57.60;;;;;;5114879;27;20399;-77
2023/06/15 11:10:01;;;;;;;;;;;30.00;56.80;;;;;;5121428;27;19926;-77
2023/06/15 11:12:41;;;;;;;4.22;1.35;;;30.00;57.20;;;;;;5124686;27;19927;-77
2023/06/15 11:15:09;;;;;;;4.68;1.55;;;30.00;57.30;;;;;;5127815;27;20810;-77
2023/06/15 11:17:56;;;;;;;6.18;1.90;;;30.00;56.60;;;;;;5101146;27;20472;-77
2023/06/15 11:20:42;;;;;;;;;;;30.00;57.20;;;;;;5125225;27;20048;-77
2023/06/15 11:23:10;;;;;;;;;;;29.90;56.50;;;;;;5122150;27;20380;-77
2023/06/15 11:25:36;;;;;;;;;;;29.90;57.00;;;;;;5122240;27;20106;-77
2023/06/15 11:28:02;;;;;;;;;;;30.00;56.80;;;;;;5129086;27;19919;-77
2023/06/15 11:30:29;;;;;;;;;;;30.10;55.80;;;;;;5123482;27;19920;-77
2023/06/15 11:32:55;;;;;;;;;;;30.20;56.40;;;;;;5128892;27;19926;-77
2023/06/15 11:35:20;;;;;;;;;;;30.20;55.80;;;;;;5116703;27;19923;-77
2023/06/15 11:37:47;;;;;;;;;;;30.20;56.50;;;;;;5131073;27;20430;-77
2023/06/15 11:40:15;;;;;;;;;;;30.20;56.60;;;;;;5128316;27;19919;-77
2023/06/15 11:42:41;;;;;;;;;;;30.20;56.00;;;;;;5131831;27;19919;-77
2023/06/15 11:45:12;;;;;;;;;;;30.30;56.30;;;;;;5124348;27;20547;-77
2023/06/15 11:47:40;;;;;;;7.40;2.05;;;30.40;56.30;;;;;;5110235;27;20291;-77
2023/06/15 11:50:07;;;;;;;4.65;1.55;;;30.50;56.80;;;;;;5121742;27;20449;-77
2023/06/15 11:52:33;;;;;;;3.80;1.48;;;30.60;57.10;;;;;;5120809;27;20402;-77
2023/06/15 11:55:09;;;;;;;3.03;1.37;;;30.60;57.40;;;;;;5124923;27;20776;-77
2023/06/15 11:57:35;;;;;;;2.87;1.47;;;30.70;57.30;;;;;;5125303;27;20440;-77
2023/06/15 12:00:03;;;;;;;5.43;1.40;;;30.70;55.90;;;;;;5124169;27;20910;-77
2023/06/15 12:02:29;;;;;;;4.97;1.70;;;30.70;56.80;;;;;;5123365;27;20475;-78
2023/06/15 12:04:57;;;;;;;3.13;1.40;;;30.50;56.60;;;;;;5124235;27;20399;-77
2023/06/15 12:07:23;;;;;;;4.43;1.58;;;30.40;56.50;;;;;;5121792;27;20436;-77
2023/06/15 12:09:49;;;;;;;3.43;1.40;;;30.40;56.10;;;;;;5124050;27;20398;-77
2023/06/15 12:12:31;;;;;;;3.55;1.33;;;30.30;56.70;;;;;;5121439;27;20431;-77
2023/06/15 12:15:01;;;;;;;4.38;1.40;;;30.40;56.50;;;;;;5124854;27;20441;-77
2023/06/15 12:17:32;;;;;;;4.55;1.27;;;30.60;55.40;;;;;;5099315;28;20487;-78
2023/06/15 12:20:09;;;;;;;3.90;1.50;;;30.60;55.60;;;;;;5109165;27;20834;-77
2023/06/15 12:22:41;;;;;;;3.63;1.30;;;30.60;55.30;;;;;;5115711;27;20412;-78
2023/06/15 12:25:07;;;;;;;3.07;1.20;;;30.70;55.00;;;;;;5121727;27;20464;-77
2023/06/15 12:27:33;;;;;;;4.38;1.20;;;30.70;54.10;;;;;;5119778;27;20422;-77
2023/06/15 12:30:13;;;;;;;4.25;1.35;;;30.80;54.20;;;;;;5120164;27;20391;-77
2023/06/15 12:32:46;;;;;;;5.00;1.73;;;30.90;53.60;;;;;;5120167;27;20403;-78
2023/06/15 12:35:37;;;;;;;;;;;31.00;52.50;;;;;;5113578;27;20043;-77
2023/06/15 12:38:10;;;;;;;;;;;31.00;52.30;;;;;;5126971;27;19927;-77
2023/06/15 12:40:39;;;;;;;3.08;1.08;;;31.00;51.30;;;;;;5118410;27;20031;-77
2023/06/15 12:43:05;;;;;;;3.92;1.27;;;30.80;51.60;;;;;;5123270;27;20044;-77
2023/06/15 12:45:34;;;;;;;5.50;1.47;;;30.80;51.30;;;;;;5125734;27;20403;-77
2023/06/15 12:48:00;;;;;;;3.08;1.35;;;30.80;52.20;;;;;;5122477;27;20439;-77
2023/06/15 12:50:29;;;;;;;4.00;1.33;;;30.80;52.90;;;;;;5106482;27;20766;-77
2023/06/15 12:52:57;;;;;;;4.15;1.35;;;30.80;52.70;;;;;;5122412;27;20396;-77
2023/06/15 12:55:27;;;;;;;5.80;1.50;;;30.90;52.40;;;;;;5126309;27;20395;-78
2023/06/15 12:57:53;;;;;;;;;;;31.10;51.30;;;;;;5113667;27;20705;-77
2023/06/15 13:00:19;;;;;;;;;;;31.00;51.50;;;;;;5127492;27;19973;-77
2023/06/15 13:02:45;;;;;;;;;;;31.10;51.60;;;;;;5122268;27;19920;-77
2023/06/15 13:05:10;;;;;;;;;;;31.20;51.50;;;;;;5125673;27;19919;-77
2023/06/15 13:07:36;;;;;;;;;;;31.10;52.40;;;;;;5103356;28;19953;-77
2023/06/15 13:10:02;;;;;;;;;;;31.20;51.80;;;;;;5119023;27;20507;-77
2023/06/15 13:12:28;;;;;;;;;;;31.20;51.50;;;;;;5121860;27;19926;-77
2023/06/15 13:14:54;;;;;;;;;;;31.20;51.20;;;;;;5119508;27;20298;-78
2023/06/15 13:17:19;;;;;;;;;;;31.30;51.20;;;;;;5117968;27;20423;-78
2023/06/15 13:19:45;;;;;;;;;;;31.40;51.10;;;;;;5125847;27;19919;-78
2023/06/15 13:22:11;;;;;;;;;;;31.40;51.60;;;;;;5119147;27;19969;-77
2023/06/15 13:24:37;;;;;;;;;;;31.60;50.60;;;;;;5106592;27;19970;-77
2023/06/15 13:27:04;;;;;;;;;;;31.60;50.00;;;;;;5120150;27;19920;-77
2023/06/15 13:29:31;;;;;;;;;;;31.50;49.50;;;;;;5115687;27;19926;-77
2023/06/15 13:31:57;;;;;;;;;;;31.40;49.60;;;;;;5117567;27;19928;-77
2023/06/15 13:34:22;;;;;;;;;;;31.50;48.50;;;;;;5117496;27;19920;-77
2023/06/15 13:36:48;;;;;;;;;;;31.50;48.10;;;;;;5124490;27;19920;-77
2023/06/15 13:39:13;;;;;;;;;;;31.30;47.30;;;;;;5129055;27;20378;-77
2023/06/15 13:41:39;;;;;;;;;;;31.20;48.20;;;;;;5124942;27;20006;-77
2023/06/15 13:44:05;;;;;;;;;;;31.10;48.00;;;;;;5129445;27;19947;-77
2023/06/15 13:46:31;;;;;;;;;;;31.00;48.20;;;;;;5125903;27;19923;-77
2023/06/15 13:48:57;;;;;;;;;;;31.10;48.30;;;;;;5127288;27;20308;-77
2023/06/15 13:51:22;;;;;;;;;;;31.30;49.60;;;;;;5126015;27;19919;-77
2023/06/15 13:53:48;;;;;;;;;;;31.60;49.80;;;;;;5127393;27;20402;-77
2023/06/15 13:56:14;;;;;;;4.93;1.15;;;32.00;49.20;;;;;;5124069;27;19950;-77
2023/06/15 13:58:39;;;;;;;5.30;1.50;;;32.30;48.20;;;;;;5117708;27;20811;-77